This is the latest recevied weather packets stored in our database for station/object DK5GB. If no packets are shown the sender has not sent any weather packets the latest 10 day(s).
| Time | Temp. | Humidity | Pressure | Rain* | Wind** | Luminosity | Snow |
|---|---|---|---|---|---|---|---|
| 1777254316 | 4.44° C | 83% | 1025.6 hPa | 0 mm | - | - | - |
| 1777252516 | 5° C | 83% | 1025.9 hPa | 0 mm | - | - | - |
| 1777250716 | 5° C | 82% | 1026.1 hPa | 0 mm | - | - | - |
| 1777249516 | 5.56° C | 81% | 1026.2 hPa | 0 mm | - | - | - |
| 1777248936 | 5.56° C | 81% | 1026.2 hPa | 0 mm | - | - | - |
| 1777244116 | 6.11° C | 78% | 1026.3 hPa | 0 mm | - | - | - |
| 1777241116 | 7.78° C | 75% | 1026.2 hPa | 0 mm | - | - | - |
| 1777236917 | 9.44° C | 73% | 1026.3 hPa | 0 mm | - | - | - |
| 1777236316 | 9.44° C | 72% | 1026.3 hPa | 0 mm | - | - | - |
| 1777232717 | 11.67° C | 65% | 1026.2 hPa | 0 mm | - | - | - |
| 1777230316 | 13.33° C | 57% | 1025.7 hPa | 0 mm | - | - | - |
| 1777229716 | 13.33° C | 57% | 1025.7 hPa | 0 mm | - | - | - |
| 1777223716 | 17.22° C | 41% | 1024.6 hPa | 0 mm | - | - | - |
| 1777220117 | 18.33° C | 38% | 1024.9 hPa | 0 mm | - | - | - |
| 1777216515 | 19.44° C | 37% | 1025.2 hPa | 0 mm | - | - | - |
| 1777214718 | 20° C | 36% | 1025.3 hPa | 0 mm | - | - | - |
| 1777211717 | 20° C | 37% | 1025.6 hPa | 0 mm | - | - | - |
| 1777208117 | 20° C | 39% | 1026.1 hPa | 0 mm | - | - | - |
| 1777207517 | 20° C | 36% | 1026.1 hPa | 0 mm | - | - | - |
| 1777206317 | 19.44° C | 37% | 1026.2 hPa | 0 mm | - | - | - |
| 1777203917 | 18.33° C | 38% | 1026.4 hPa | 0 mm | - | - | - |
| 1777200917 | 18.33° C | 35% | 1026.7 hPa | 0 mm | - | - | - |
| 1777199717 | 18.33° C | 37% | 1026.7 hPa | 0 mm | - | - | - |
| 1777196117 | 17.22° C | 40% | 1027.1 hPa | 0 mm | - | - | - |
| 1777193717 | 17.22° C | 39% | 1027.1 hPa | 0 mm | - | - | - |
* Rain latest hour (hover to see other rain measurements)
** Current wind speed in m/s (hover to see current wind gust speed)